createdAt,value
2023-04-16T00:01:05.221Z,8.50
2023-04-16T00:03:33.713Z,8.40
2023-04-16T00:06:02.108Z,8.40
2023-04-16T00:08:32.792Z,8.30
2023-04-16T00:11:01.017Z,8.40
2023-04-16T00:13:29.213Z,8.40
2023-04-16T00:15:57.377Z,8.30
2023-04-16T00:18:25.718Z,8.30
2023-04-16T00:20:54.723Z,8.30
2023-04-16T00:23:25.007Z,8.30
2023-04-16T00:25:57.214Z,8.30
2023-04-16T00:28:25.365Z,8.30
2023-04-16T00:30:53.542Z,8.30
2023-04-16T00:33:21.999Z,8.20
2023-04-16T00:35:50.521Z,8.20
2023-04-16T00:38:18.766Z,8.20
2023-04-16T00:40:46.959Z,8.20
2023-04-16T00:43:24.839Z,8.20
2023-04-16T00:45:56.082Z,8.20
2023-04-16T00:48:24.851Z,8.20
2023-04-16T00:50:55.054Z,8.20
2023-04-16T00:53:23.568Z,8.10
2023-04-16T00:55:52.276Z,8.10
2023-04-16T00:58:22.066Z,8.10
2023-04-16T01:00:50.242Z,8.00
2023-04-16T01:03:18.886Z,8.10
2023-04-16T01:05:49.308Z,8.00
2023-04-16T01:08:18.713Z,8.00
2023-04-16T01:10:46.939Z,8.00
2023-04-16T01:13:15.379Z,8.00
2023-04-16T01:15:44.990Z,8.00
2023-04-16T01:18:16.969Z,8.00
2023-04-16T01:20:46.877Z,8.00
2023-04-16T01:23:15.231Z,8.00
2023-04-16T01:25:43.496Z,8.00
2023-04-16T01:28:11.827Z,8.00
2023-04-16T01:30:40.212Z,7.90
2023-04-16T01:33:08.949Z,7.90
2023-04-16T01:35:37.116Z,7.90
2023-04-16T01:38:07.825Z,7.80
2023-04-16T01:40:36.167Z,7.80
2023-04-16T01:43:04.493Z,7.80
2023-04-16T01:45:33.211Z,7.80
2023-04-16T01:48:01.885Z,7.70
2023-04-16T01:50:31.533Z,7.70
2023-04-16T01:52:59.702Z,7.70
2023-04-16T01:55:29.266Z,7.70
2023-04-16T01:57:57.541Z,7.70
2023-04-16T02:00:25.746Z,7.70
2023-04-16T02:02:54.113Z,7.70
2023-04-16T02:05:22.419Z,7.70
2023-04-16T02:07:50.604Z,7.70
2023-04-16T02:10:18.822Z,7.80
2023-04-16T02:12:48.585Z,7.60
2023-04-16T02:15:17.010Z,7.60
2023-04-16T02:17:46.675Z,7.60
2023-04-16T02:20:15.749Z,7.60
2023-04-16T02:22:44.097Z,8.00
2023-04-16T02:25:14.267Z,7.70
2023-04-16T02:27:42.557Z,7.70
2023-04-16T02:30:13.518Z,7.80
2023-04-16T02:32:43.324Z,7.70
2023-04-16T02:35:11.677Z,7.80
2023-04-16T02:37:40.853Z,7.80
2023-04-16T02:40:10.668Z,7.80
2023-04-16T02:42:38.949Z,7.80
2023-04-16T02:45:08.156Z,7.80
2023-04-16T02:47:37.944Z,7.70
2023-04-16T02:50:07.102Z,7.70
2023-04-16T02:52:35.392Z,7.80
2023-04-16T02:55:03.813Z,7.80
2023-04-16T02:57:32.105Z,7.80
2023-04-16T03:00:00.672Z,7.80
2023-04-16T03:02:29.106Z,7.80
2023-04-16T03:04:58.998Z,7.90
2023-04-16T03:07:27.403Z,7.80
2023-04-16T03:09:55.712Z,7.90
2023-04-16T03:12:24.069Z,7.90
2023-04-16T03:14:52.787Z,7.90
2023-04-16T03:17:21.153Z,7.90
2023-04-16T03:19:50.906Z,7.90
2023-04-16T03:22:22.049Z,7.90
2023-04-16T03:24:50.608Z,7.90
2023-04-16T03:27:18.988Z,7.90
2023-04-16T03:29:47.196Z,7.90
2023-04-16T03:32:15.649Z,7.90
2023-04-16T03:34:43.936Z,7.90
2023-04-16T03:37:13.000Z,7.90
2023-04-16T03:39:43.025Z,7.90
2023-04-16T03:42:11.479Z,7.90
2023-04-16T03:44:39.818Z,8.00
2023-04-16T03:47:08.151Z,8.00
2023-04-16T03:49:36.457Z,8.00
2023-04-16T03:52:07.204Z,8.00
2023-04-16T03:54:35.492Z,8.00
2023-04-16T03:57:05.356Z,8.00
2023-04-16T03:59:33.575Z,8.00
2023-04-16T04:02:01.901Z,7.90
2023-04-16T04:04:30.426Z,8.00
2023-04-16T04:07:00.924Z,8.00
2023-04-16T04:09:29.078Z,8.00
2023-04-16T04:11:57.264Z,8.00
2023-04-16T04:14:26.981Z,8.00
2023-04-16T04:16:55.199Z,8.00
2023-04-16T04:19:23.370Z,8.00
2023-04-16T04:21:51.529Z,8.00
2023-04-16T04:24:19.697Z,7.90
2023-04-16T04:26:47.865Z,8.00
2023-04-16T04:29:16.056Z,8.00
2023-04-16T04:31:45.739Z,8.00
2023-04-16T04:34:13.998Z,8.00
2023-04-16T04:36:42.164Z,8.00
2023-04-16T04:39:10.691Z,8.00
2023-04-16T04:41:38.988Z,8.00
2023-04-16T04:44:07.167Z,8.00
2023-04-16T04:46:35.334Z,7.90
2023-04-16T04:49:04.892Z,7.90
2023-04-16T04:51:33.123Z,7.90
2023-04-16T04:54:01.352Z,7.90
2023-04-16T04:56:29.655Z,7.90
2023-04-16T04:58:57.818Z,7.80
2023-04-16T05:01:26.092Z,7.90
2023-04-16T05:03:54.345Z,7.80
2023-04-16T05:06:23.941Z,7.90
2023-04-16T05:08:52.172Z,7.90
2023-04-16T05:11:20.610Z,7.90
2023-04-16T05:13:48.790Z,7.90
2023-04-16T05:16:17.037Z,7.90
2023-04-16T05:18:45.524Z,7.90
2023-04-16T05:21:13.812Z,7.90
2023-04-16T05:23:43.433Z,7.90
2023-04-16T05:26:11.653Z,8.00
2023-04-16T05:28:39.928Z,7.90
2023-04-16T05:31:08.194Z,8.00
2023-04-16T05:33:36.586Z,7.90
2023-04-16T05:36:05.145Z,8.00
2023-04-16T05:38:33.304Z,8.00
2023-04-16T05:41:02.917Z,8.00
2023-04-16T05:43:31.289Z,8.00
2023-04-16T05:45:59.539Z,8.10
2023-04-16T05:48:27.792Z,8.20
2023-04-16T05:50:55.988Z,8.30
2023-04-16T05:53:24.167Z,8.30
2023-04-16T05:55:52.469Z,8.30
2023-04-16T05:58:22.040Z,8.40
2023-04-16T06:00:50.393Z,8.50
2023-04-16T06:03:18.744Z,8.50
2023-04-16T06:05:47.109Z,8.50
2023-04-16T06:08:15.320Z,8.60
2023-04-16T06:10:43.537Z,8.70
2023-04-16T06:13:11.735Z,8.80
2023-04-16T06:15:41.436Z,8.90
2023-04-16T06:18:09.778Z,9.00
2023-04-16T06:20:38.232Z,9.10
2023-04-16T06:23:06.463Z,9.10
2023-04-16T06:25:34.711Z,9.10
2023-04-16T06:28:02.969Z,9.10
2023-04-16T06:30:31.221Z,9.00
2023-04-16T06:33:01.119Z,9.10
2023-04-16T06:35:29.429Z,9.10
2023-04-16T06:37:57.710Z,9.10
2023-04-16T06:40:26.151Z,9.20
2023-04-16T06:42:55.803Z,9.20
2023-04-16T06:45:24.045Z,9.20
2023-04-16T06:47:52.665Z,9.20
2023-04-16T06:50:23.411Z,9.30
2023-04-16T06:52:52.038Z,9.30
2023-04-16T06:55:20.461Z,9.50
2023-04-16T06:57:48.705Z,9.50
2023-04-16T07:00:17.133Z,9.50
2023-04-16T07:02:45.671Z,9.50
2023-04-16T07:05:14.061Z,9.60
2023-04-16T07:07:43.682Z,9.60
2023-04-16T07:10:12.303Z,9.70
2023-04-16T07:12:40.497Z,9.70
2023-04-16T07:15:10.040Z,9.70
2023-04-16T07:17:38.229Z,9.80
2023-04-16T07:20:07.707Z,9.80
2023-04-16T07:22:35.939Z,9.80
2023-04-16T07:25:06.252Z,10.00
2023-04-16T07:27:34.421Z,9.80
2023-04-16T07:30:02.642Z,9.70
2023-04-16T07:32:30.965Z,9.80
2023-04-16T07:34:59.150Z,9.90
2023-04-16T07:37:27.389Z,9.90
2023-04-16T07:39:57.607Z,10.00
2023-04-16T07:42:27.519Z,10.00
2023-04-16T07:44:56.500Z,10.00
2023-04-16T07:47:26.513Z,9.80
2023-04-16T07:49:54.753Z,9.90
2023-04-16T07:52:22.941Z,9.80
2023-04-16T07:54:51.773Z,9.90
2023-04-16T07:57:19.954Z,9.90
2023-04-16T07:59:49.591Z,10.00
2023-04-16T08:02:18.215Z,10.10
2023-04-16T08:04:46.623Z,10.00
2023-04-16T08:07:14.988Z,9.90
2023-04-16T08:09:49.797Z,9.90
2023-04-16T08:12:18.325Z,9.80
2023-04-16T08:14:47.024Z,9.70
2023-04-16T08:17:17.505Z,9.70
2023-04-16T08:19:45.989Z,9.70
2023-04-16T08:22:14.482Z,9.80
2023-04-16T08:24:42.653Z,9.90
2023-04-16T08:27:19.070Z,10.00
2023-04-16T08:29:48.738Z,10.00
2023-04-16T08:32:18.555Z,10.00
2023-04-16T08:34:46.839Z,10.00
2023-04-16T08:37:15.022Z,10.00
2023-04-16T08:39:43.298Z,9.90
2023-04-16T08:42:20.165Z,9.90
2023-04-16T08:44:50.541Z,9.90
2023-04-16T08:47:22.414Z,9.80
2023-04-16T08:49:50.724Z,9.70
2023-04-16T08:52:21.074Z,9.50
2023-04-16T08:54:58.417Z,9.50
2023-04-16T08:57:30.832Z,9.50
2023-04-16T08:59:59.374Z,9.50
2023-04-16T09:02:29.685Z,9.50
2023-04-16T09:04:58.944Z,9.60
2023-04-16T09:07:28.700Z,9.60
2023-04-16T09:09:59.082Z,9.50
2023-04-16T09:12:27.716Z,9.40
2023-04-16T09:14:57.613Z,9.60
2023-04-16T09:17:25.829Z,9.50
2023-04-16T09:19:55.768Z,9.40
2023-04-16T09:22:24.074Z,9.40
2023-04-16T09:24:52.219Z,9.40
2023-04-16T09:27:21.048Z,9.40
2023-04-16T09:29:49.238Z,9.60
2023-04-16T09:32:17.473Z,9.70
2023-04-16T09:35:00.773Z,9.90
2023-04-16T09:37:30.792Z,10.00
2023-04-16T09:40:00.451Z,10.00
2023-04-16T09:42:29.766Z,10.00
2023-04-16T09:45:00.312Z,9.90
2023-04-16T09:47:41.564Z,10.10
2023-04-16T09:50:18.232Z,10.20
2023-04-16T09:52:49.431Z,10.30
2023-04-16T09:55:19.168Z,10.50
2023-04-16T09:57:48.741Z,10.40
2023-04-16T10:00:20.664Z,10.50
2023-04-16T10:02:50.659Z,10.50
2023-04-16T10:05:21.569Z,10.60
2023-04-16T10:07:49.872Z,10.60
2023-04-16T10:10:18.223Z,10.70
2023-04-16T10:12:46.667Z,10.60
2023-04-16T10:15:15.056Z,10.60
2023-04-16T10:17:44.189Z,10.60
2023-04-16T10:20:12.631Z,10.60
2023-04-16T10:22:43.055Z,10.70
2023-04-16T10:25:12.161Z,10.90
2023-04-16T10:27:41.125Z,10.60
2023-04-16T10:30:11.121Z,10.30
2023-04-16T10:32:40.036Z,10.50
2023-04-16T10:35:08.812Z,10.50
2023-04-16T10:37:39.062Z,10.50
2023-04-16T10:40:27.250Z,10.70
2023-04-16T10:42:56.841Z,10.90
2023-04-16T10:45:31.604Z,10.90
2023-04-16T10:48:00.180Z,11.00
2023-04-16T10:50:36.461Z,11.10
2023-04-16T10:53:22.028Z,11.20
2023-04-16T10:56:15.510Z,11.30
2023-04-16T10:58:43.881Z,11.30
2023-04-16T11:01:16.817Z,11.20
2023-04-16T11:03:49.174Z,11.40
2023-04-16T11:06:19.360Z,11.40
2023-04-16T11:08:54.388Z,11.40
2023-04-16T11:11:24.904Z,11.50
2023-04-16T11:13:57.915Z,11.70
2023-04-16T11:16:27.360Z,11.70
2023-04-16T11:18:57.165Z,11.70
2023-04-16T11:21:26.698Z,11.70
2023-04-16T11:23:56.764Z,11.80
2023-04-16T11:26:27.894Z,11.70
2023-04-16T11:28:57.167Z,11.70
2023-04-16T11:31:27.365Z,11.80
2023-04-16T11:33:57.882Z,11.90
2023-04-16T11:36:27.845Z,11.90
2023-04-16T11:39:03.574Z,11.90
2023-04-16T11:41:33.208Z,11.80
2023-04-16T11:44:01.422Z,11.50
2023-04-16T11:46:40.699Z,11.80
2023-04-16T11:49:09.493Z,11.90
2023-04-16T11:51:41.662Z,12.00
2023-04-16T11:54:12.010Z,12.10
2023-04-16T11:56:48.118Z,12.00
2023-04-16T11:59:17.870Z,12.10
2023-04-16T12:01:49.426Z,12.20
2023-04-16T12:04:19.777Z,12.30
2023-04-16T12:07:09.947Z,12.20
2023-04-16T12:09:40.757Z,12.10
2023-04-16T12:12:27.333Z,12.00
2023-04-16T12:14:56.887Z,12.10
2023-04-16T12:17:25.470Z,12.10
2023-04-16T12:19:57.030Z,12.10
2023-04-16T12:22:34.099Z,12.20
2023-04-16T12:25:04.773Z,12.10
2023-04-16T12:27:51.484Z,12.10
2023-04-16T12:30:22.486Z,12.10
2023-04-16T12:32:52.475Z,12.20
2023-04-16T12:35:31.638Z,12.40
2023-04-16T12:37:59.901Z,12.40
2023-04-16T12:40:28.258Z,12.60
2023-04-16T12:42:57.899Z,12.70
2023-04-16T12:45:26.473Z,12.70
2023-04-16T12:47:55.871Z,12.80
2023-04-16T12:50:24.375Z,12.80
2023-04-16T12:52:52.704Z,12.90
2023-04-16T12:55:21.306Z,12.90
2023-04-16T12:57:49.891Z,12.90
2023-04-16T13:00:20.116Z,12.90
2023-04-16T13:02:48.685Z,13.00
2023-04-16T13:05:19.233Z,13.10
2023-04-16T13:07:47.654Z,13.20
2023-04-16T13:10:16.826Z,13.10
2023-04-16T13:12:46.560Z,13.20
2023-04-16T13:15:14.836Z,13.00
2023-04-16T13:17:44.419Z,13.00
2023-04-16T13:20:12.767Z,13.10
2023-04-16T13:22:40.999Z,13.10
2023-04-16T13:25:10.441Z,13.00
2023-04-16T13:27:38.625Z,13.00
2023-04-16T13:30:07.915Z,13.20
2023-04-16T13:32:36.180Z,14.10
2023-04-16T13:35:06.535Z,14.90
2023-04-16T13:37:35.588Z,15.60
2023-04-16T13:40:03.767Z,16.00
2023-04-16T13:42:32.448Z,16.30
2023-04-16T13:45:01.305Z,16.90
2023-04-16T13:47:30.174Z,17.30
2023-04-16T13:49:58.454Z,17.40
2023-04-16T13:52:28.052Z,16.90
2023-04-16T13:54:57.842Z,16.40
2023-04-16T13:57:27.898Z,16.00
2023-04-16T13:59:56.898Z,15.60
2023-04-16T14:02:26.065Z,15.10
2023-04-16T14:04:54.748Z,15.00
2023-04-16T14:07:26.234Z,15.00
2023-04-16T14:09:55.959Z,14.40
2023-04-16T14:12:24.239Z,14.40
2023-04-16T14:14:52.406Z,15.20
2023-04-16T14:17:20.706Z,15.10
2023-04-16T14:19:48.958Z,15.00
2023-04-16T14:22:18.310Z,15.00
2023-04-16T14:24:46.483Z,14.80
2023-04-16T14:27:17.022Z,15.20
2023-04-16T14:29:46.510Z,16.10
2023-04-16T14:32:14.790Z,15.80
2023-04-16T14:34:42.952Z,15.40
2023-04-16T14:37:11.147Z,16.20
2023-04-16T14:39:39.747Z,17.00
2023-04-16T14:42:07.920Z,17.40
2023-04-16T14:44:37.555Z,17.70
2023-04-16T14:47:05.984Z,18.00
2023-04-16T14:49:35.238Z,18.40
2023-04-16T14:52:05.565Z,18.90
2023-04-16T14:54:34.110Z,18.90
2023-04-16T14:57:03.474Z,19.00
2023-04-16T14:59:32.353Z,19.10
2023-04-16T15:02:02.214Z,19.40
2023-04-16T15:04:31.546Z,19.60
2023-04-16T15:07:00.623Z,20.10
2023-04-16T15:09:28.797Z,20.20
2023-04-16T15:11:57.155Z,20.30
2023-04-16T15:14:25.357Z,21.00
2023-04-16T15:16:54.523Z,20.90
2023-04-16T15:19:24.195Z,21.00
2023-04-16T15:21:52.366Z,20.60
2023-04-16T15:24:21.170Z,20.50
2023-04-16T15:26:49.333Z,20.00
2023-04-16T15:29:17.487Z,19.70
2023-04-16T15:31:45.688Z,19.40
2023-04-16T15:34:14.103Z,18.80
2023-04-16T15:36:43.643Z,18.90
2023-04-16T15:39:12.136Z,19.00
2023-04-16T15:41:53.621Z,19.00
2023-04-16T15:44:28.578Z,19.20
2023-04-16T15:46:56.744Z,18.60
2023-04-16T15:49:25.487Z,18.40
2023-04-16T15:51:55.581Z,18.00
2023-04-16T15:54:23.900Z,17.70
2023-04-16T15:56:52.340Z,18.00
2023-04-16T15:59:20.654Z,17.80
2023-04-16T16:01:48.936Z,17.60
2023-04-16T16:04:17.252Z,17.40
2023-04-16T16:06:45.525Z,17.20
2023-04-16T16:09:15.119Z,17.30
2023-04-16T16:11:43.323Z,17.50
2023-04-16T16:14:11.671Z,17.30
2023-04-16T16:16:40.312Z,16.90
2023-04-16T16:19:08.612Z,16.60
2023-04-16T16:21:37.151Z,16.20
2023-04-16T16:24:05.469Z,16.40
2023-04-16T16:26:35.048Z,16.50
2023-04-16T16:29:03.310Z,16.20
2023-04-16T16:31:31.577Z,16.20
2023-04-16T16:33:59.846Z,16.00
2023-04-16T16:36:29.680Z,15.60
2023-04-16T16:38:57.974Z,15.10
2023-04-16T16:41:26.413Z,14.80
2023-04-16T16:43:56.331Z,14.20
2023-04-16T16:46:24.601Z,14.00
2023-04-16T16:48:52.788Z,13.80
2023-04-16T16:51:21.515Z,13.70
2023-04-16T16:53:49.696Z,13.60
2023-04-16T16:56:17.851Z,13.40
2023-04-16T16:58:46.375Z,13.40
2023-04-16T17:01:15.973Z,13.40
2023-04-16T17:03:44.219Z,13.50
2023-04-16T17:06:13.096Z,13.60
2023-04-16T17:08:41.314Z,13.50
2023-04-16T17:11:09.465Z,13.40
2023-04-16T17:13:39.395Z,13.20
2023-04-16T17:16:07.564Z,12.90
2023-04-16T17:18:37.125Z,12.80
2023-04-16T17:21:05.405Z,12.50
2023-04-16T17:23:33.584Z,12.50
2023-04-16T17:26:01.806Z,12.30
2023-04-16T17:28:29.993Z,12.10
2023-04-16T17:30:58.182Z,12.00
2023-04-16T17:33:26.473Z,11.80
2023-04-16T17:35:56.077Z,11.50
2023-04-16T17:38:24.298Z,11.40
2023-04-16T17:40:52.518Z,11.30
2023-04-16T17:43:20.708Z,11.20
2023-04-16T17:45:48.858Z,11.10
2023-04-16T17:48:17.069Z,11.00
2023-04-16T17:50:45.222Z,11.00
2023-04-16T17:53:15.110Z,10.90
2023-04-16T17:55:51.968Z,10.70
2023-04-16T17:58:21.239Z,10.60
2023-04-16T18:00:49.415Z,10.60
2023-04-16T18:03:18.797Z,10.60
2023-04-16T18:05:49.006Z,10.50
2023-04-16T18:08:18.577Z,10.40
2023-04-16T18:10:46.978Z,10.30
2023-04-16T18:13:15.165Z,10.30
2023-04-16T18:15:43.365Z,10.30
2023-04-16T18:18:11.597Z,10.20
2023-04-16T18:20:39.853Z,10.20
2023-04-16T18:23:08.085Z,10.20
2023-04-16T18:25:38.153Z,10.20
2023-04-16T18:28:08.180Z,10.10
2023-04-16T18:30:36.346Z,10.10
2023-04-16T18:35:50.893Z,10.10
2023-04-16T18:38:19.169Z,10.00
2023-04-16T18:40:49.795Z,10.00
2023-04-16T18:43:18.032Z,9.90
2023-04-16T18:45:46.164Z,9.90
2023-04-16T18:48:14.321Z,9.80
2023-04-16T18:50:42.459Z,9.80
2023-04-16T18:53:10.665Z,9.80
2023-04-16T18:55:39.060Z,9.80
2023-04-16T18:58:08.616Z,9.70
2023-04-16T19:00:36.794Z,9.60
2023-04-16T19:03:07.137Z,9.60
2023-04-16T19:05:35.574Z,9.60
2023-04-16T19:08:03.939Z,9.60
2023-04-16T19:10:32.118Z,9.50
2023-04-16T19:13:00.357Z,9.50
2023-04-16T19:15:32.072Z,9.50
2023-04-16T19:18:01.366Z,9.50
2023-04-16T19:20:29.527Z,9.50
2023-04-16T19:22:58.119Z,9.50
2023-04-16T19:25:26.295Z,9.40
2023-04-16T19:27:55.732Z,9.40
2023-04-16T19:30:24.554Z,9.40
2023-04-16T19:32:55.498Z,9.30
2023-04-16T19:35:26.558Z,9.40
2023-04-16T19:37:56.259Z,9.30
2023-04-16T19:40:26.599Z,9.30
2023-04-16T19:42:54.929Z,9.20
2023-04-16T19:45:26.037Z,9.20
2023-04-16T19:47:56.199Z,9.10
2023-04-16T19:50:24.546Z,9.10
2023-04-16T19:52:52.691Z,9.10
2023-04-16T19:55:20.968Z,9.00
2023-04-16T19:57:49.377Z,9.00
2023-04-16T20:00:18.142Z,9.00
2023-04-16T20:02:46.442Z,8.80
2023-04-16T20:05:16.415Z,8.70
2023-04-16T20:07:44.649Z,8.70
2023-04-16T20:10:12.845Z,8.60
2023-04-16T20:12:41.156Z,8.60
2023-04-16T20:15:10.517Z,8.60
2023-04-16T20:17:38.854Z,8.60
2023-04-16T20:20:10.218Z,8.50
2023-04-16T20:22:40.260Z,8.50
2023-04-16T20:25:09.985Z,8.50
2023-04-16T20:27:38.155Z,8.40
2023-04-16T20:30:07.429Z,8.40
2023-04-16T20:32:36.067Z,8.30
2023-04-16T20:35:10.296Z,8.30
2023-04-16T20:37:42.980Z,8.20
2023-04-16T20:40:13.933Z,8.30
2023-04-16T20:42:46.303Z,8.30
2023-04-16T20:45:14.706Z,8.40
2023-04-16T20:47:43.448Z,8.40
2023-04-16T20:50:12.369Z,8.30
2023-04-16T20:52:42.381Z,8.40
2023-04-16T20:55:10.998Z,8.40
2023-04-16T20:57:39.132Z,8.30
2023-04-16T21:00:11.009Z,8.40
2023-04-16T21:02:39.382Z,8.30
2023-04-16T21:05:09.714Z,8.30
2023-04-16T21:07:37.918Z,8.40
2023-04-16T21:10:09.745Z,8.30
2023-04-16T21:12:38.338Z,8.30
2023-04-16T21:15:07.335Z,8.40
2023-04-16T21:17:35.827Z,8.40
2023-04-16T21:20:06.947Z,8.40
2023-04-16T21:22:35.149Z,8.40
2023-04-16T21:25:03.840Z,8.30
2023-04-16T21:27:33.386Z,8.40
2023-04-16T21:30:01.574Z,8.40
2023-04-16T21:32:29.774Z,8.40
2023-04-16T21:34:57.928Z,8.40
2023-04-16T21:37:26.137Z,8.40
2023-04-16T21:39:54.307Z,8.40
2023-04-16T21:42:22.447Z,8.40
2023-04-16T21:44:52.405Z,8.40
2023-04-16T21:47:20.946Z,8.40
2023-04-16T21:49:49.158Z,8.40
2023-04-16T21:52:18.594Z,8.40
2023-04-16T21:54:47.203Z,8.40
2023-04-16T21:57:15.596Z,8.40
2023-04-16T21:59:43.740Z,8.40
2023-04-16T22:02:13.651Z,8.40
2023-04-16T22:04:42.258Z,8.40
2023-04-16T22:07:11.608Z,8.40
2023-04-16T22:09:40.833Z,8.50
2023-04-16T22:12:10.262Z,8.50
2023-04-16T22:14:43.962Z,8.50
2023-04-16T22:17:19.067Z,8.50
2023-04-16T22:19:48.938Z,8.50
2023-04-16T22:22:17.146Z,8.60
2023-04-16T22:24:45.585Z,8.50
2023-04-16T22:27:13.742Z,8.60
2023-04-16T22:29:41.874Z,8.60
2023-04-16T22:32:10.105Z,8.70
2023-04-16T22:34:39.680Z,8.70
2023-04-16T22:37:08.200Z,8.70
2023-04-16T22:39:36.871Z,8.80
2023-04-16T22:42:05.535Z,8.80
2023-04-16T22:44:33.792Z,8.80
2023-04-16T22:47:01.958Z,8.80
2023-04-16T22:49:33.093Z,8.70
2023-04-16T22:52:03.091Z,8.70
2023-04-16T22:54:31.825Z,8.70
2023-04-16T22:57:01.010Z,8.60
2023-04-16T22:59:29.177Z,8.60
2023-04-16T23:01:57.425Z,8.60
2023-04-16T23:04:25.807Z,8.50
2023-04-16T23:06:54.037Z,8.60
2023-04-16T23:09:23.595Z,8.60
2023-04-16T23:11:51.822Z,8.60
2023-04-16T23:14:21.313Z,8.50
2023-04-16T23:16:49.477Z,8.50
2023-04-16T23:19:17.686Z,8.50
2023-04-16T23:21:45.864Z,8.50
2023-04-16T23:24:14.037Z,8.50
2023-04-16T23:26:43.736Z,8.50
2023-04-16T23:29:12.227Z,8.50
2023-04-16T23:31:40.647Z,8.40
2023-04-16T23:34:08.916Z,8.30
2023-04-16T23:36:37.178Z,8.30
2023-04-16T23:39:05.391Z,8.30
2023-04-16T23:41:33.536Z,8.20
2023-04-16T23:44:03.155Z,8.20
2023-04-16T23:46:31.445Z,8.10
2023-04-16T23:48:59.712Z,8.20
2023-04-16T23:51:27.998Z,8.10
2023-04-16T23:53:56.110Z,8.10
2023-04-16T23:56:24.380Z,8.10
2023-04-16T23:58:52.561Z,8.00
